El Paso, Illinois
Current Conditions -  °F | °C
As of 6:56 AM on Thursday 23 Oct 2014 (Local Time) from KBMI Reporting Station
Clear Clear  
Wind Chill: 33°   Ceiling: Unl
Heat Index: 38°   Visibility: 10mi
Dew Point: 36°   Wind: 7mph
Humidity: 93%   Direction: 180°S
Pressure: 30.22"   Gusts: NA
Location:  40.74°N, 89.02°W
Report Text: KBMI 231156Z 18006KT 10SM CLR 03/02 A3022 RMK AO2 56004 60000 T00330022 10055 20027 RAB16E49 P0000 SLP239
Loading
Personal Weather Stations






























Interactive Weather Map
Tropical Storm Tracking
New forecast layout! Learn more

10-Day Weather Forecast

Advertisements
Track Severe Weather on mobile